createdAt,value
2023-04-26T00:00:24.983Z,1.00
2023-04-26T00:02:51.838Z,99.90
2023-04-26T00:05:21.857Z,99.90
2023-04-26T00:07:50.408Z,99.90
2023-04-26T00:10:20.009Z,99.90
2023-04-26T00:12:46.669Z,1.00
2023-04-26T00:15:17.572Z,99.90
2023-04-26T00:17:44.431Z,99.90
2023-04-26T00:20:13.746Z,99.90
2023-04-26T00:22:40.592Z,99.90
2023-04-26T00:25:08.319Z,99.90
2023-04-26T00:27:35.014Z,99.90
2023-04-26T00:30:04.733Z,99.90
2023-04-26T00:32:33.161Z,1.00
2023-04-26T00:37:52.595Z,99.90
2023-04-26T00:40:21.598Z,99.90
2023-04-26T00:42:48.468Z,99.90
2023-04-26T00:45:18.490Z,1.00
2023-04-26T00:47:50.160Z,1.00
2023-04-26T00:50:17.036Z,1.00
2023-04-26T00:52:45.812Z,99.90
2023-04-26T00:55:16.425Z,99.90
2023-04-26T00:57:45.464Z,1.00
2023-04-26T01:00:12.696Z,99.90
2023-04-26T01:02:39.499Z,99.90
2023-04-26T01:05:06.753Z,99.90
2023-04-26T01:07:33.998Z,99.90
2023-04-26T01:10:00.790Z,99.90
2023-04-26T01:12:28.167Z,99.90
2023-04-26T01:14:55.686Z,1.00
2023-04-26T01:17:22.366Z,1.00
2023-04-26T01:19:50.053Z,1.00
2023-04-26T01:22:19.431Z,1.00
2023-04-26T01:24:50.416Z,1.00
2023-04-26T01:27:17.610Z,99.90
2023-04-26T01:29:44.315Z,1.00
2023-04-26T01:32:11.979Z,1.00
2023-04-26T01:34:38.672Z,1.00
2023-04-26T01:37:05.381Z,99.90
2023-04-26T01:39:31.982Z,99.90
2023-04-26T01:41:58.705Z,1.00
2023-04-26T01:44:25.382Z,55.60
2023-04-26T01:46:52.099Z,99.90
2023-04-26T01:49:18.861Z,1.00
2023-04-26T01:51:45.469Z,99.90
2023-04-26T01:54:12.266Z,1.00
2023-04-26T01:56:38.934Z,1.00
2023-04-26T01:59:05.804Z,99.90
2023-04-26T02:01:32.509Z,99.90
2023-04-26T02:03:59.243Z,99.90
2023-04-26T02:06:26.555Z,99.90
2023-04-26T02:08:54.390Z,99.90
2023-04-26T02:11:21.284Z,99.90
2023-04-26T02:13:48.020Z,99.90
2023-04-26T02:16:16.856Z,99.90
2023-04-26T02:18:44.396Z,1.00
2023-04-26T02:21:12.351Z,1.00
2023-04-26T02:23:39.066Z,1.00
2023-04-26T02:26:06.046Z,1.00
2023-04-26T02:28:32.730Z,1.00
2023-04-26T02:30:59.770Z,1.00
2023-04-26T02:33:26.629Z,1.00
2023-04-26T02:35:53.271Z,1.00
2023-04-26T02:38:20.447Z,1.00
2023-04-26T02:40:47.363Z,1.00
2023-04-26T02:43:14.154Z,1.00
2023-04-26T02:45:43.061Z,1.00
2023-04-26T02:48:09.722Z,1.00
2023-04-26T02:50:36.689Z,1.00
2023-04-26T02:53:03.703Z,1.00
2023-04-26T02:55:30.939Z,1.00
2023-04-26T02:57:57.607Z,1.00
2023-04-26T03:00:25.078Z,1.00
2023-04-26T03:02:52.127Z,1.00
2023-04-26T03:05:19.991Z,1.00
2023-04-26T03:07:46.832Z,1.00
2023-04-26T03:10:13.736Z,1.00
2023-04-26T03:12:40.736Z,1.00
2023-04-26T03:15:07.849Z,1.00
2023-04-26T03:17:34.474Z,1.00
2023-04-26T03:20:02.770Z,10.00
2023-04-26T03:22:29.734Z,18.90
2023-04-26T03:24:57.037Z,23.50
2023-04-26T03:27:24.292Z,31.30
2023-04-26T03:29:50.955Z,46.30
2023-04-26T03:32:17.865Z,55.90
2023-04-26T03:34:44.811Z,58.70
2023-04-26T03:37:11.454Z,58.90
2023-04-26T03:39:38.133Z,65.60
2023-04-26T03:42:04.971Z,70.00
2023-04-26T03:44:31.704Z,79.10
2023-04-26T03:46:58.372Z,85.30
2023-04-26T03:49:25.092Z,89.40
2023-04-26T03:51:54.364Z,92.80
2023-04-26T03:54:21.004Z,97.10
2023-04-26T03:56:47.836Z,99.90
2023-04-26T03:59:14.762Z,99.90
2023-04-26T04:01:42.046Z,99.90
2023-04-26T04:04:10.069Z,99.90
2023-04-26T04:06:38.251Z,99.90
2023-04-26T04:09:07.861Z,99.90
2023-04-26T04:11:34.632Z,99.90
2023-04-26T04:14:02.874Z,99.90
2023-04-26T04:16:29.874Z,99.90
2023-04-26T04:18:56.843Z,99.90
2023-04-26T04:21:23.866Z,99.90
2023-04-26T04:23:50.509Z,99.90
2023-04-26T04:26:17.498Z,99.90
2023-04-26T04:28:45.502Z,99.90
2023-04-26T04:31:12.919Z,99.90
2023-04-26T04:33:39.892Z,99.90
2023-04-26T04:36:07.317Z,99.90
2023-04-26T04:38:34.513Z,99.90
2023-04-26T04:41:01.254Z,99.90
2023-04-26T04:43:27.940Z,99.90
2023-04-26T04:45:55.437Z,99.90
2023-04-26T04:48:22.512Z,99.90
2023-04-26T04:50:52.777Z,99.90
2023-04-26T04:53:19.621Z,99.90
2023-04-26T04:55:46.550Z,99.90
2023-04-26T04:58:16.386Z,99.90
2023-04-26T05:00:43.516Z,99.90
2023-04-26T05:03:11.028Z,99.90
2023-04-26T05:05:38.048Z,99.90
2023-04-26T05:08:07.645Z,99.90
2023-04-26T05:10:35.161Z,99.90
2023-04-26T05:13:01.889Z,99.90
2023-04-26T05:15:30.375Z,99.90
2023-04-26T05:17:57.727Z,99.90
2023-04-26T05:20:24.505Z,99.90
2023-04-26T05:22:51.266Z,99.90
2023-04-26T05:25:19.248Z,99.90
2023-04-26T05:27:46.863Z,99.90
2023-04-26T05:30:13.912Z,99.90
2023-04-26T05:32:41.493Z,99.90
2023-04-26T05:35:08.956Z,99.90
2023-04-26T05:37:36.297Z,99.90
2023-04-26T05:40:04.671Z,99.90
2023-04-26T05:42:31.377Z,99.90
2023-04-26T05:44:59.084Z,99.90
2023-04-26T05:47:26.373Z,99.90
2023-04-26T05:49:53.278Z,99.90
2023-04-26T05:52:20.915Z,99.90
2023-04-26T05:54:47.598Z,99.90
2023-04-26T05:57:16.716Z,99.90
2023-04-26T05:59:45.322Z,99.90
2023-04-26T06:02:12.204Z,99.90
2023-04-26T06:04:39.932Z,99.90
2023-04-26T06:07:07.197Z,99.90
2023-04-26T06:09:35.232Z,99.90
2023-04-26T06:12:02.179Z,99.90
2023-04-26T06:14:30.722Z,99.90
2023-04-26T06:16:58.087Z,99.90
2023-04-26T06:19:27.640Z,99.90
2023-04-26T06:21:55.376Z,99.90
2023-04-26T06:24:25.164Z,99.90
2023-04-26T06:26:52.024Z,99.90
2023-04-26T06:29:18.745Z,99.90
2023-04-26T06:31:45.403Z,99.90
2023-04-26T06:34:12.110Z,99.90
2023-04-26T06:36:41.081Z,99.90
2023-04-26T06:39:08.025Z,99.90
2023-04-26T06:41:34.787Z,99.90
2023-04-26T06:44:01.533Z,99.90
2023-04-26T06:46:31.481Z,99.90
2023-04-26T06:48:58.146Z,99.90
2023-04-26T06:51:25.007Z,99.90
2023-04-26T06:53:52.732Z,99.90
2023-04-26T06:56:19.595Z,99.90
2023-04-26T06:59:06.956Z,99.90
2023-04-26T07:01:35.344Z,99.90
2023-04-26T07:04:04.378Z,99.90
2023-04-26T07:06:31.569Z,99.90
2023-04-26T07:09:02.825Z,99.90
2023-04-26T07:11:29.906Z,99.90
2023-04-26T07:13:57.177Z,99.90
2023-04-26T07:16:24.283Z,99.90
2023-04-26T07:18:52.957Z,99.90
2023-04-26T07:21:19.673Z,99.90
2023-04-26T07:23:47.675Z,99.90
2023-04-26T07:26:14.392Z,99.90
2023-04-26T07:28:41.098Z,99.90
2023-04-26T07:31:09.533Z,99.90
2023-04-26T07:33:36.989Z,99.90
2023-04-26T07:36:03.999Z,99.90
2023-04-26T07:38:30.770Z,99.90
2023-04-26T07:40:58.226Z,99.90
2023-04-26T07:43:25.872Z,99.90
2023-04-26T07:45:53.366Z,99.90
2023-04-26T07:48:22.971Z,99.90
2023-04-26T07:50:49.649Z,99.90
2023-04-26T07:53:16.324Z,99.90
2023-04-26T07:55:43.982Z,99.90
2023-04-26T07:58:14.615Z,99.90
2023-04-26T08:00:41.652Z,99.90
2023-04-26T08:03:08.597Z,99.90
2023-04-26T08:05:35.697Z,99.90
2023-04-26T08:08:02.813Z,99.90
2023-04-26T08:10:29.975Z,99.90
2023-04-26T08:12:57.540Z,99.90
2023-04-26T08:15:24.334Z,99.90
2023-04-26T08:17:53.300Z,99.90
2023-04-26T08:20:20.829Z,99.90
2023-04-26T08:22:48.300Z,99.90
2023-04-26T08:25:15.802Z,99.60
2023-04-26T08:27:44.750Z,99.30
2023-04-26T08:30:12.069Z,99.60
2023-04-26T08:32:38.891Z,99.90
2023-04-26T08:35:08.541Z,98.60
2023-04-26T08:37:38.502Z,98.30
2023-04-26T08:40:10.284Z,98.60
2023-04-26T08:42:44.291Z,98.80
2023-04-26T08:45:12.883Z,99.80
2023-04-26T08:47:49.287Z,98.20
2023-04-26T08:50:19.693Z,97.40
2023-04-26T08:52:48.588Z,96.90
2023-04-26T08:55:16.649Z,95.80
2023-04-26T08:57:46.562Z,96.20
2023-04-26T09:00:14.723Z,96.40
2023-04-26T09:02:43.002Z,95.00
2023-04-26T09:05:12.780Z,94.80
2023-04-26T09:07:45.998Z,95.10
2023-04-26T09:10:24.460Z,96.10
2023-04-26T09:12:55.646Z,95.30
2023-04-26T09:15:26.139Z,95.40
2023-04-26T09:17:53.330Z,96.40
2023-04-26T09:20:33.113Z,95.40
2023-04-26T09:23:08.356Z,94.80
2023-04-26T09:25:36.086Z,94.30
2023-04-26T09:28:03.867Z,95.40
2023-04-26T09:30:31.274Z,95.80
2023-04-26T09:33:09.195Z,96.00
2023-04-26T09:35:40.531Z,94.80
2023-04-26T09:38:13.574Z,94.80
2023-04-26T09:40:47.359Z,93.60
2023-04-26T09:43:19.289Z,93.10
2023-04-26T09:45:57.043Z,94.00
2023-04-26T09:48:35.465Z,93.60
2023-04-26T09:51:04.877Z,93.50
2023-04-26T09:53:34.665Z,92.40
2023-04-26T09:56:18.887Z,92.70
2023-04-26T09:58:57.882Z,91.70
2023-04-26T10:01:25.592Z,91.20
2023-04-26T10:03:53.169Z,91.00
2023-04-26T10:06:20.015Z,90.90
2023-04-26T10:08:46.971Z,90.60
2023-04-26T10:11:16.228Z,91.30
2023-04-26T10:13:44.738Z,90.90
2023-04-26T10:16:12.689Z,90.60
2023-04-26T10:18:39.505Z,90.40
2023-04-26T10:21:22.499Z,90.60
2023-04-26T10:23:51.307Z,91.40
2023-04-26T10:26:54.244Z,90.80
2023-04-26T10:29:22.496Z,91.90
2023-04-26T10:32:04.519Z,90.50
2023-04-26T10:34:34.248Z,90.80
2023-04-26T10:37:10.082Z,91.40
2023-04-26T10:39:37.101Z,91.10
2023-04-26T10:42:30.699Z,91.00
2023-04-26T10:45:00.904Z,90.50
2023-04-26T10:47:37.083Z,91.20
2023-04-26T10:50:13.608Z,91.60
2023-04-26T10:53:09.266Z,91.00
2023-04-26T10:55:43.379Z,90.60
2023-04-26T10:58:30.136Z,90.20
2023-04-26T11:01:08.822Z,90.90
2023-04-26T11:03:40.642Z,90.00
2023-04-26T11:06:12.239Z,90.10
2023-04-26T11:08:43.121Z,90.50
2023-04-26T11:11:15.478Z,89.00
2023-04-26T11:13:43.430Z,89.60
2023-04-26T11:16:15.137Z,88.50
2023-04-26T11:18:43.586Z,89.30
2023-04-26T11:21:11.262Z,88.80
2023-04-26T11:23:38.554Z,90.20
2023-04-26T11:26:08.345Z,87.20
2023-04-26T11:28:38.161Z,85.60
2023-04-26T11:31:09.890Z,86.10
2023-04-26T11:33:36.952Z,85.30
2023-04-26T11:36:04.517Z,84.30
2023-04-26T11:38:31.279Z,83.60
2023-04-26T11:40:59.467Z,83.60
2023-04-26T11:43:32.329Z,83.60
2023-04-26T11:46:01.416Z,83.60
2023-04-26T11:48:30.141Z,83.70
2023-04-26T11:50:59.328Z,83.00
2023-04-26T11:53:43.800Z,83.70
2023-04-26T11:56:18.047Z,83.70
2023-04-26T11:58:52.705Z,86.30
2023-04-26T12:01:24.954Z,87.10
2023-04-26T12:03:54.424Z,86.20
2023-04-26T12:06:30.986Z,86.90
2023-04-26T12:08:57.675Z,86.00
2023-04-26T12:11:24.389Z,88.10
2023-04-26T12:13:51.171Z,87.80
2023-04-26T12:16:26.314Z,87.40
2023-04-26T12:18:55.453Z,87.00
2023-04-26T12:21:22.585Z,87.10
2023-04-26T12:23:52.437Z,86.40
2023-04-26T12:26:20.375Z,86.10
2023-04-26T12:28:51.829Z,82.70
2023-04-26T12:31:20.436Z,83.50
2023-04-26T12:33:48.028Z,83.30
2023-04-26T12:36:26.669Z,83.00
2023-04-26T12:38:53.611Z,81.70
2023-04-26T12:41:20.657Z,78.70
2023-04-26T12:43:49.867Z,81.50
2023-04-26T12:46:19.230Z,81.00
2023-04-26T12:48:46.629Z,81.70
2023-04-26T12:51:13.278Z,81.30
2023-04-26T12:53:39.976Z,80.40
2023-04-26T12:56:07.012Z,80.00
2023-04-26T12:58:40.614Z,81.10
2023-04-26T13:01:07.384Z,80.60
2023-04-26T13:03:34.242Z,79.50
2023-04-26T13:06:01.511Z,78.40
2023-04-26T13:08:28.895Z,80.10
2023-04-26T13:10:56.879Z,80.90
2023-04-26T13:13:35.918Z,80.50
2023-04-26T13:16:11.139Z,79.70
2023-04-26T13:18:38.002Z,80.50
2023-04-26T13:21:05.030Z,80.00
2023-04-26T13:23:36.289Z,79.40
2023-04-26T13:26:02.939Z,79.10
2023-04-26T13:28:29.659Z,78.90
2023-04-26T13:30:56.589Z,77.20
2023-04-26T13:33:27.350Z,78.50
2023-04-26T13:35:56.142Z,80.40
2023-04-26T13:38:26.158Z,79.40
2023-04-26T13:40:53.882Z,80.70
2023-04-26T13:43:20.590Z,80.80
2023-04-26T13:45:49.736Z,78.60
2023-04-26T13:48:16.641Z,78.80
2023-04-26T13:50:43.510Z,81.40
2023-04-26T13:53:10.197Z,78.90
2023-04-26T13:55:37.360Z,78.80
2023-04-26T13:58:04.216Z,79.60
2023-04-26T14:00:30.975Z,80.50
2023-04-26T14:02:57.840Z,79.00
2023-04-26T14:05:25.167Z,80.20
2023-04-26T14:07:54.943Z,79.60
2023-04-26T14:10:26.279Z,80.10
2023-04-26T14:12:52.952Z,78.40
2023-04-26T14:15:22.715Z,79.10
2023-04-26T14:17:50.973Z,79.30
2023-04-26T14:20:23.755Z,79.40
2023-04-26T14:22:50.913Z,80.00
2023-04-26T14:25:20.289Z,80.10
2023-04-26T14:27:47.382Z,79.30
2023-04-26T14:30:14.421Z,79.60
2023-04-26T14:32:43.589Z,79.40
2023-04-26T14:35:14.474Z,79.90
2023-04-26T14:37:41.142Z,79.00
2023-04-26T14:40:08.456Z,79.60
2023-04-26T14:42:35.816Z,80.70
2023-04-26T14:45:05.568Z,80.80
2023-04-26T14:47:32.188Z,80.60
2023-04-26T14:50:01.846Z,80.90
2023-04-26T14:52:29.219Z,81.40
2023-04-26T14:54:58.086Z,80.50
2023-04-26T14:57:27.936Z,80.00
2023-04-26T14:59:59.520Z,78.70
2023-04-26T15:02:30.609Z,79.70
2023-04-26T15:04:57.722Z,78.60
2023-04-26T15:07:32.145Z,76.50
2023-04-26T15:10:00.088Z,76.20
2023-04-26T15:12:28.914Z,76.60
2023-04-26T15:14:58.838Z,76.50
2023-04-26T15:17:31.289Z,75.80
2023-04-26T15:19:57.912Z,75.90
2023-04-26T15:22:25.989Z,74.70
2023-04-26T15:24:55.405Z,75.10
2023-04-26T15:27:29.539Z,75.00
2023-04-26T15:29:57.020Z,75.90
2023-04-26T15:32:23.730Z,75.40
2023-04-26T15:34:52.589Z,75.40
2023-04-26T15:37:19.248Z,74.60
2023-04-26T15:39:46.539Z,74.80
2023-04-26T15:42:13.509Z,76.30
2023-04-26T15:44:41.859Z,75.00
2023-04-26T15:47:08.474Z,74.10
2023-04-26T15:49:37.359Z,74.80
2023-04-26T15:52:07.778Z,73.90
2023-04-26T15:54:39.190Z,74.90
2023-04-26T15:57:05.859Z,72.40
2023-04-26T15:59:32.719Z,72.60
2023-04-26T16:02:02.345Z,73.60
2023-04-26T16:04:29.338Z,74.30
2023-04-26T16:06:56.222Z,73.80
2023-04-26T16:09:27.036Z,75.00
2023-04-26T16:11:56.366Z,73.70
2023-04-26T16:14:23.036Z,75.00
2023-04-26T16:16:50.027Z,75.00
2023-04-26T16:19:18.595Z,76.10
2023-04-26T16:21:51.301Z,77.30
2023-04-26T16:24:19.498Z,77.20
2023-04-26T16:26:46.403Z,77.90
2023-04-26T16:29:17.010Z,78.30
2023-04-26T16:31:48.991Z,79.50
2023-04-26T16:34:17.231Z,79.00
2023-04-26T16:36:46.451Z,78.00
2023-04-26T16:42:05.279Z,78.90
2023-04-26T16:44:34.892Z,78.80
2023-04-26T16:47:01.776Z,78.30
2023-04-26T16:49:33.671Z,78.80
2023-04-26T16:52:01.056Z,79.10
2023-04-26T16:54:28.744Z,78.50
2023-04-26T16:57:00.494Z,79.10
2023-04-26T16:59:31.709Z,77.00
2023-04-26T17:01:59.069Z,77.00
2023-04-26T17:04:26.725Z,75.80
2023-04-26T17:06:55.192Z,76.30
2023-04-26T17:09:21.872Z,77.80
2023-04-26T17:11:55.683Z,76.70
2023-04-26T17:14:28.618Z,77.00
2023-04-26T17:16:55.296Z,76.50
2023-04-26T17:19:23.572Z,76.60
2023-04-26T17:21:50.295Z,76.70
2023-04-26T17:24:17.725Z,77.60
2023-04-26T17:26:46.181Z,77.30
2023-04-26T17:29:12.913Z,77.70
2023-04-26T17:31:42.536Z,78.50
2023-04-26T17:34:09.457Z,78.60
2023-04-26T17:39:31.745Z,80.00
2023-04-26T17:41:58.430Z,80.40
2023-04-26T17:44:25.088Z,80.70
2023-04-26T17:46:51.795Z,81.20
2023-04-26T17:49:22.186Z,81.70
2023-04-26T17:51:48.818Z,82.30
2023-04-26T17:54:15.694Z,83.00
2023-04-26T17:56:47.434Z,82.50
2023-04-26T17:59:14.096Z,82.30
2023-04-26T18:01:44.507Z,82.40
2023-04-26T18:04:11.681Z,82.60
2023-04-26T18:06:40.108Z,83.20
2023-04-26T18:09:07.133Z,83.40
2023-04-26T18:11:40.294Z,83.80
2023-04-26T18:14:07.106Z,84.30
2023-04-26T18:16:38.994Z,85.00
2023-04-26T18:19:05.797Z,85.50
2023-04-26T18:21:35.684Z,86.10
2023-04-26T18:24:02.874Z,86.60
2023-04-26T18:26:29.802Z,86.80
2023-04-26T18:28:56.938Z,87.20
2023-04-26T18:31:24.834Z,87.50
2023-04-26T18:36:46.265Z,88.30
2023-04-26T18:39:16.575Z,89.70
2023-04-26T18:41:43.513Z,90.00
2023-04-26T18:44:17.202Z,90.20
2023-04-26T18:46:44.752Z,90.50
2023-04-26T18:52:02.996Z,90.70
2023-04-26T18:54:31.215Z,90.90
2023-04-26T18:56:58.111Z,91.00
2023-04-26T18:59:27.911Z,91.30
2023-04-26T19:01:54.853Z,91.50
2023-04-26T19:04:24.560Z,91.80
2023-04-26T19:06:51.420Z,92.20
2023-04-26T19:09:18.628Z,92.40
2023-04-26T19:11:45.367Z,92.60
2023-04-26T19:17:04.637Z,93.00
2023-04-26T19:19:33.823Z,93.30
2023-04-26T19:22:02.185Z,93.50
2023-04-26T19:24:28.984Z,93.80
2023-04-26T19:26:58.262Z,94.30
2023-04-26T19:32:17.174Z,95.10
2023-04-26T19:34:44.040Z,95.80
2023-04-26T19:37:11.929Z,96.10
2023-04-26T19:39:38.592Z,96.60
2023-04-26T19:42:11.735Z,96.90
2023-04-26T19:44:39.832Z,97.30
2023-04-26T19:47:06.761Z,98.00
2023-04-26T19:49:34.741Z,98.30
2023-04-26T19:52:01.817Z,99.00
2023-04-26T19:54:30.693Z,99.50
2023-04-26T19:56:57.635Z,99.90
2023-04-26T19:59:24.361Z,99.90
2023-04-26T20:01:53.783Z,99.90
2023-04-26T20:04:21.299Z,99.90
2023-04-26T20:06:50.801Z,99.90
2023-04-26T20:09:23.743Z,99.90
2023-04-26T20:11:50.471Z,99.90
2023-04-26T20:14:19.638Z,99.90
2023-04-26T20:16:46.388Z,99.90
2023-04-26T20:22:09.750Z,1.00
2023-04-26T20:24:36.830Z,1.00
2023-04-26T20:27:04.052Z,1.00
2023-04-26T20:29:34.136Z,1.00
2023-04-26T20:32:00.851Z,1.00
2023-04-26T20:34:32.295Z,1.00
2023-04-26T20:39:51.673Z,99.90
2023-04-26T20:42:20.036Z,99.90
2023-04-26T20:44:53.063Z,99.90
2023-04-26T20:47:22.132Z,99.90
2023-04-26T20:49:51.005Z,1.00
2023-04-26T20:52:27.283Z,99.90
2023-04-26T20:54:56.211Z,1.00
2023-04-26T20:57:29.966Z,1.00
2023-04-26T20:59:56.647Z,1.00
2023-04-26T21:02:23.517Z,99.90
2023-04-26T21:04:50.393Z,99.90
2023-04-26T21:07:17.152Z,1.00
2023-04-26T21:09:43.852Z,1.00
2023-04-26T21:12:11.098Z,1.00
2023-04-26T21:14:37.774Z,1.00
2023-04-26T21:17:05.791Z,52.50
2023-04-26T21:22:25.966Z,1.00
2023-04-26T21:24:53.016Z,1.00
2023-04-26T21:27:19.758Z,83.30
2023-04-26T21:29:50.743Z,1.00
2023-04-26T21:32:17.460Z,1.00
2023-04-26T21:34:44.152Z,30.00
2023-04-26T21:37:10.931Z,1.00
2023-04-26T21:39:37.847Z,99.90
2023-04-26T21:42:08.664Z,1.00
2023-04-26T21:44:35.590Z,1.00
2023-04-26T21:47:09.073Z,99.90
2023-04-26T21:49:35.934Z,1.00
2023-04-26T21:52:07.884Z,37.90
2023-04-26T21:54:41.032Z,99.90
2023-04-26T21:57:12.249Z,99.90
2023-04-26T21:59:44.228Z,1.00
2023-04-26T22:02:12.085Z,99.90
2023-04-26T22:07:34.674Z,1.00
2023-04-26T22:10:06.377Z,1.00
2023-04-26T22:12:32.984Z,1.00
2023-04-26T22:15:00.217Z,1.00
2023-04-26T22:17:27.110Z,1.00
2023-04-26T22:19:56.815Z,1.00
2023-04-26T22:22:28.341Z,99.90
2023-04-26T22:27:49.808Z,63.80
2023-04-26T22:30:25.922Z,1.00
2023-04-26T22:32:54.672Z,1.00
2023-04-26T22:35:29.052Z,91.70
2023-04-26T22:37:58.332Z,99.90
2023-04-26T22:40:28.209Z,99.90
2023-04-26T22:42:54.844Z,99.90
2023-04-26T22:45:25.008Z,1.00
2023-04-26T22:47:51.694Z,1.00
2023-04-26T22:50:18.371Z,26.60
2023-04-26T22:52:47.321Z,99.90
2023-04-26T22:55:14.114Z,99.90
2023-04-26T22:57:42.687Z,77.50
2023-04-26T23:00:14.714Z,1.00
2023-04-26T23:02:41.941Z,1.00
2023-04-26T23:05:10.225Z,1.00
2023-04-26T23:07:39.612Z,99.90
2023-04-26T23:10:06.805Z,99.90
2023-04-26T23:12:33.542Z,99.90
2023-04-26T23:15:01.733Z,99.90
2023-04-26T23:17:28.565Z,99.90
2023-04-26T23:19:55.250Z,50.10
2023-04-26T23:22:21.972Z,1.00
2023-04-26T23:24:48.686Z,1.00
2023-04-26T23:27:15.383Z,1.00
2023-04-26T23:29:42.085Z,1.00
2023-04-26T23:32:08.949Z,1.00
2023-04-26T23:34:38.380Z,1.00
2023-04-26T23:37:07.135Z,1.00
2023-04-26T23:39:39.958Z,1.00
2023-04-26T23:42:06.710Z,1.00
2023-04-26T23:44:39.417Z,1.00
2023-04-26T23:47:06.368Z,1.00
2023-04-26T23:49:33.809Z,1.00
2023-04-26T23:52:03.623Z,1.00
2023-04-26T23:54:31.254Z,13.80
2023-04-26T23:56:57.931Z,58.20
2023-04-26T23:59:24.827Z,97.00
